Lake of the Forest, Kansas
Current Conditions -  °F | °C
As of 7:53 AM on Friday 31 Oct 2014 (Local Time) from KIXD Reporting Station
Broken Clouds Broken Clouds  
Wind Chill: 26°   Ceiling: 2800
Heat Index: 35°   Visibility: 10mi
Dew Point: 26°   Wind: 14mph
Humidity: 70%   Direction: 330°NNW
Pressure: 30.43"   Gusts: NA
Location:  39.0619°N, 94.8881°W
Report Text: KIXD 311253Z 33012KT 10SM BKN028 02/M03 A3043 RMK AO2 PK WND 34026/1154 SLP308 T00171033
Loading
Personal Weather Stations






























Interactive Weather Map New forecast layout! Learn more

10-Day Weather Forecast

Advertisements
Track Severe Weather on mobile